sensor_id;sensor_type;location;lat;lon;timestamp;P1;durP1;ratioP1;P2;durP2;ratioP2
74375;SDS011;62812;55.188;61.302;2022-08-19T00:00:50;3.30;;;0.93;;
74375;SDS011;62812;55.188;61.302;2022-08-19T00:03:16;4.85;;;1.17;;
74375;SDS011;62812;55.188;61.302;2022-08-19T00:05:43;9.07;;;1.10;;
74375;SDS011;62812;55.188;61.302;2022-08-19T00:08:09;3.83;;;1.00;;
74375;SDS011;62812;55.188;61.302;2022-08-19T00:10:36;6.72;;;1.15;;
74375;SDS011;62812;55.188;61.302;2022-08-19T00:13:04;4.32;;;1.10;;
74375;SDS011;62812;55.188;61.302;2022-08-19T00:15:31;6.63;;;1.20;;
74375;SDS011;62812;55.188;61.302;2022-08-19T00:18:00;10.25;;;1.30;;
74375;SDS011;62812;55.188;61.302;2022-08-19T00:20:29;4.53;;;1.30;;
74375;SDS011;62812;55.188;61.302;2022-08-19T00:22:57;5.28;;;1.08;;
74375;SDS011;62812;55.188;61.302;2022-08-19T00:25:23;6.28;;;1.10;;
74375;SDS011;62812;55.188;61.302;2022-08-19T00:27:50;4.30;;;1.00;;
74375;SDS011;62812;55.188;61.302;2022-08-19T00:30:18;3.78;;;0.93;;
74375;SDS011;62812;55.188;61.302;2022-08-19T00:32:45;5.20;;;1.00;;
74375;SDS011;62812;55.188;61.302;2022-08-19T00:35:11;3.67;;;0.80;;
74375;SDS011;62812;55.188;61.302;2022-08-19T00:37:38;6.03;;;1.23;;
74375;SDS011;62812;55.188;61.302;2022-08-19T00:40:10;5.72;;;1.05;;
74375;SDS011;62812;55.188;61.302;2022-08-19T00:42:38;3.40;;;1.08;;
74375;SDS011;62812;55.188;61.302;2022-08-19T00:45:08;3.60;;;0.95;;
74375;SDS011;62812;55.188;61.302;2022-08-19T00:47:38;3.53;;;0.90;;
74375;SDS011;62812;55.188;61.302;2022-08-19T00:50:05;8.48;;;0.90;;
74375;SDS011;62812;55.188;61.302;2022-08-19T00:52:34;3.85;;;0.93;;
74375;SDS011;62812;55.188;61.302;2022-08-19T00:55:05;2.60;;;0.93;;
74375;SDS011;62812;55.188;61.302;2022-08-19T00:57:36;3.92;;;0.93;;
74375;SDS011;62812;55.188;61.302;2022-08-19T01:00:06;5.28;;;1.10;;
74375;SDS011;62812;55.188;61.302;2022-08-19T01:02:38;6.60;;;1.30;;
74375;SDS011;62812;55.188;61.302;2022-08-19T01:05:08;4.07;;;1.17;;
74375;SDS011;62812;55.188;61.302;2022-08-19T01:07:37;7.45;;;1.25;;
74375;SDS011;62812;55.188;61.302;2022-08-19T01:10:07;14.50;;;1.60;;
74375;SDS011;62812;55.188;61.302;2022-08-19T01:12:36;13.68;;;2.08;;
74375;SDS011;62812;55.188;61.302;2022-08-19T01:15:06;9.23;;;1.10;;
74375;SDS011;62812;55.188;61.302;2022-08-19T01:17:36;21.90;;;1.92;;
74375;SDS011;62812;55.188;61.302;2022-08-19T01:20:07;7.38;;;1.20;;
74375;SDS011;62812;55.188;61.302;2022-08-19T01:22:40;7.40;;;1.30;;
74375;SDS011;62812;55.188;61.302;2022-08-19T01:25:09;3.67;;;1.20;;
74375;SDS011;62812;55.188;61.302;2022-08-19T01:27:38;6.63;;;1.27;;
74375;SDS011;62812;55.188;61.302;2022-08-19T01:30:05;11.65;;;1.00;;
74375;SDS011;62812;55.188;61.302;2022-08-19T01:32:33;11.90;;;1.40;;
74375;SDS011;62812;55.188;61.302;2022-08-19T01:35:00;8.07;;;1.00;;
74375;SDS011;62812;55.188;61.302;2022-08-19T01:37:28;6.03;;;0.85;;
74375;SDS011;62812;55.188;61.302;2022-08-19T01:39:57;6.68;;;1.30;;
74375;SDS011;62812;55.188;61.302;2022-08-19T01:42:23;12.85;;;1.30;;
74375;SDS011;62812;55.188;61.302;2022-08-19T01:44:50;14.85;;;1.38;;
74375;SDS011;62812;55.188;61.302;2022-08-19T01:47:17;13.73;;;1.30;;
74375;SDS011;62812;55.188;61.302;2022-08-19T01:49:44;9.70;;;1.90;;
74375;SDS011;62812;55.188;61.302;2022-08-19T01:52:13;6.05;;;1.00;;
74375;SDS011;62812;55.188;61.302;2022-08-19T01:54:39;6.03;;;1.08;;
74375;SDS011;62812;55.188;61.302;2022-08-19T01:57:08;7.88;;;1.13;;
74375;SDS011;62812;55.188;61.302;2022-08-19T01:59:38;11.23;;;1.35;;
74375;SDS011;62812;55.188;61.302;2022-08-19T02:02:05;15.27;;;1.02;;
74375;SDS011;62812;55.188;61.302;2022-08-19T02:04:37;8.05;;;1.33;;
74375;SDS011;62812;55.188;61.302;2022-08-19T02:07:06;6.45;;;0.90;;
74375;SDS011;62812;55.188;61.302;2022-08-19T02:09:33;2.50;;;0.90;;
74375;SDS011;62812;55.188;61.302;2022-08-19T02:12:00;2.92;;;0.80;;
74375;SDS011;62812;55.188;61.302;2022-08-19T02:14:28;2.92;;;1.02;;
74375;SDS011;62812;55.188;61.302;2022-08-19T02:16:55;4.15;;;0.98;;
74375;SDS011;62812;55.188;61.302;2022-08-19T02:19:21;3.58;;;1.00;;
74375;SDS011;62812;55.188;61.302;2022-08-19T02:21:48;3.38;;;1.00;;
74375;SDS011;62812;55.188;61.302;2022-08-19T02:24:14;3.45;;;1.20;;
74375;SDS011;62812;55.188;61.302;2022-08-19T02:26:41;5.57;;;1.40;;
74375;SDS011;62812;55.188;61.302;2022-08-19T02:29:10;4.70;;;1.00;;
74375;SDS011;62812;55.188;61.302;2022-08-19T02:31:40;4.13;;;1.20;;
74375;SDS011;62812;55.188;61.302;2022-08-19T02:34:10;3.05;;;0.93;;
74375;SDS011;62812;55.188;61.302;2022-08-19T02:36:36;2.35;;;1.02;;
74375;SDS011;62812;55.188;61.302;2022-08-19T02:39:03;6.43;;;1.20;;
74375;SDS011;62812;55.188;61.302;2022-08-19T02:41:30;3.75;;;1.02;;
74375;SDS011;62812;55.188;61.302;2022-08-19T02:43:59;3.97;;;1.10;;
74375;SDS011;62812;55.188;61.302;2022-08-19T02:46:28;4.43;;;1.50;;
74375;SDS011;62812;55.188;61.302;2022-08-19T02:48:59;3.67;;;1.25;;
74375;SDS011;62812;55.188;61.302;2022-08-19T02:51:29;4.32;;;1.60;;
74375;SDS011;62812;55.188;61.302;2022-08-19T02:53:57;5.32;;;1.25;;
74375;SDS011;62812;55.188;61.302;2022-08-19T02:56:25;6.32;;;1.27;;
74375;SDS011;62812;55.188;61.302;2022-08-19T02:58:53;5.65;;;1.92;;
74375;SDS011;62812;55.188;61.302;2022-08-19T03:01:21;3.42;;;1.20;;
74375;SDS011;62812;55.188;61.302;2022-08-19T03:03:52;5.20;;;1.40;;
74375;SDS011;62812;55.188;61.302;2022-08-19T03:06:21;7.70;;;1.40;;
74375;SDS011;62812;55.188;61.302;2022-08-19T03:08:48;5.78;;;1.20;;
74375;SDS011;62812;55.188;61.302;2022-08-19T03:11:15;4.43;;;1.10;;
74375;SDS011;62812;55.188;61.302;2022-08-19T03:13:43;7.43;;;1.15;;
74375;SDS011;62812;55.188;61.302;2022-08-19T03:16:10;4.95;;;1.30;;
74375;SDS011;62812;55.188;61.302;2022-08-19T03:18:37;4.65;;;1.27;;
74375;SDS011;62812;55.188;61.302;2022-08-19T03:21:05;7.28;;;1.50;;
74375;SDS011;62812;55.188;61.302;2022-08-19T03:23:33;7.97;;;2.20;;
74375;SDS011;62812;55.188;61.302;2022-08-19T03:26:02;4.75;;;2.22;;
74375;SDS011;62812;55.188;61.302;2022-08-19T03:28:30;5.53;;;1.77;;
74375;SDS011;62812;55.188;61.302;2022-08-19T03:30:58;7.15;;;2.00;;
74375;SDS011;62812;55.188;61.302;2022-08-19T03:33:26;7.68;;;2.40;;
74375;SDS011;62812;55.188;61.302;2022-08-19T03:36:00;7.05;;;2.63;;
74375;SDS011;62812;55.188;61.302;2022-08-19T03:38:34;6.82;;;2.08;;
74375;SDS011;62812;55.188;61.302;2022-08-19T03:41:02;8.55;;;2.20;;
74375;SDS011;62812;55.188;61.302;2022-08-19T03:43:32;6.15;;;2.22;;
74375;SDS011;62812;55.188;61.302;2022-08-19T03:46:00;7.35;;;2.15;;
74375;SDS011;62812;55.188;61.302;2022-08-19T03:48:30;5.85;;;2.40;;
74375;SDS011;62812;55.188;61.302;2022-08-19T03:50:57;8.30;;;3.00;;
74375;SDS011;62812;55.188;61.302;2022-08-19T03:53:24;10.73;;;3.00;;
74375;SDS011;62812;55.188;61.302;2022-08-19T03:55:53;9.02;;;2.38;;
74375;SDS011;62812;55.188;61.302;2022-08-19T03:58:20;5.93;;;2.58;;
74375;SDS011;62812;55.188;61.302;2022-08-19T04:00:47;5.90;;;2.35;;
74375;SDS011;62812;55.188;61.302;2022-08-19T04:03:13;5.40;;;2.35;;
74375;SDS011;62812;55.188;61.302;2022-08-19T04:05:40;11.10;;;3.10;;
74375;SDS011;62812;55.188;61.302;2022-08-19T04:08:07;7.07;;;2.90;;
74375;SDS011;62812;55.188;61.302;2022-08-19T04:10:35;6.53;;;2.88;;
74375;SDS011;62812;55.188;61.302;2022-08-19T04:13:03;9.35;;;2.72;;
74375;SDS011;62812;55.188;61.302;2022-08-19T04:15:31;9.38;;;2.90;;
74375;SDS011;62812;55.188;61.302;2022-08-19T04:18:02;8.25;;;2.75;;
74375;SDS011;62812;55.188;61.302;2022-08-19T04:20:28;8.88;;;2.67;;
74375;SDS011;62812;55.188;61.302;2022-08-19T04:22:56;7.85;;;2.88;;
74375;SDS011;62812;55.188;61.302;2022-08-19T04:25:23;7.15;;;3.67;;
74375;SDS011;62812;55.188;61.302;2022-08-19T04:27:49;6.57;;;2.92;;
74375;SDS011;62812;55.188;61.302;2022-08-19T04:30:17;7.45;;;3.08;;
74375;SDS011;62812;55.188;61.302;2022-08-19T04:32:48;6.28;;;2.78;;
74375;SDS011;62812;55.188;61.302;2022-08-19T04:35:16;8.85;;;2.83;;
74375;SDS011;62812;55.188;61.302;2022-08-19T04:37:42;10.95;;;2.90;;
74375;SDS011;62812;55.188;61.302;2022-08-19T04:40:09;6.20;;;3.33;;
74375;SDS011;62812;55.188;61.302;2022-08-19T04:42:55;7.90;;;3.00;;
74375;SDS011;62812;55.188;61.302;2022-08-19T04:45:23;6.18;;;2.92;;
74375;SDS011;62812;55.188;61.302;2022-08-19T04:47:54;5.85;;;2.45;;
74375;SDS011;62812;55.188;61.302;2022-08-19T04:50:22;5.28;;;2.33;;
74375;SDS011;62812;55.188;61.302;2022-08-19T04:52:49;7.55;;;3.10;;
74375;SDS011;62812;55.188;61.302;2022-08-19T04:55:16;6.00;;;2.65;;
74375;SDS011;62812;55.188;61.302;2022-08-19T04:57:43;7.57;;;2.95;;
74375;SDS011;62812;55.188;61.302;2022-08-19T05:00:10;5.68;;;2.58;;
74375;SDS011;62812;55.188;61.302;2022-08-19T05:02:38;5.40;;;2.50;;
74375;SDS011;62812;55.188;61.302;2022-08-19T05:05:05;8.95;;;3.60;;
74375;SDS011;62812;55.188;61.302;2022-08-19T05:07:32;7.50;;;2.75;;
74375;SDS011;62812;55.188;61.302;2022-08-19T05:09:59;6.60;;;2.40;;
74375;SDS011;62812;55.188;61.302;2022-08-19T05:12:25;11.75;;;3.03;;
74375;SDS011;62812;55.188;61.302;2022-08-19T05:14:54;6.43;;;2.90;;
74375;SDS011;62812;55.188;61.302;2022-08-19T05:17:22;6.47;;;2.83;;
74375;SDS011;62812;55.188;61.302;2022-08-19T05:19:50;5.97;;;2.65;;
74375;SDS011;62812;55.188;61.302;2022-08-19T05:22:35;6.63;;;2.58;;
74375;SDS011;62812;55.188;61.302;2022-08-19T05:25:03;5.45;;;2.60;;
74375;SDS011;62812;55.188;61.302;2022-08-19T05:27:32;6.82;;;2.80;;
74375;SDS011;62812;55.188;61.302;2022-08-19T05:29:59;5.50;;;2.63;;
74375;SDS011;62812;55.188;61.302;2022-08-19T05:32:27;5.82;;;2.70;;
74375;SDS011;62812;55.188;61.302;2022-08-19T05:34:55;8.57;;;2.95;;
74375;SDS011;62812;55.188;61.302;2022-08-19T05:37:22;6.20;;;2.67;;
74375;SDS011;62812;55.188;61.302;2022-08-19T05:39:49;5.82;;;3.05;;
74375;SDS011;62812;55.188;61.302;2022-08-19T05:42:15;7.75;;;3.38;;
74375;SDS011;62812;55.188;61.302;2022-08-19T05:44:43;7.68;;;2.92;;
74375;SDS011;62812;55.188;61.302;2022-08-19T05:47:10;5.13;;;2.60;;
74375;SDS011;62812;55.188;61.302;2022-08-19T05:49:38;6.95;;;2.60;;
74375;SDS011;62812;55.188;61.302;2022-08-19T05:52:10;8.18;;;2.80;;
74375;SDS011;62812;55.188;61.302;2022-08-19T05:54:41;8.70;;;2.83;;
74375;SDS011;62812;55.188;61.302;2022-08-19T05:57:09;6.22;;;2.80;;
74375;SDS011;62812;55.188;61.302;2022-08-19T05:59:35;6.95;;;2.67;;
74375;SDS011;62812;55.188;61.302;2022-08-19T06:02:03;6.28;;;2.83;;
74375;SDS011;62812;55.188;61.302;2022-08-19T06:04:30;6.80;;;3.00;;
74375;SDS011;62812;55.188;61.302;2022-08-19T06:06:57;5.28;;;2.70;;
74375;SDS011;62812;55.188;61.302;2022-08-19T06:09:25;5.95;;;2.97;;
74375;SDS011;62812;55.188;61.302;2022-08-19T06:11:53;5.38;;;2.70;;
74375;SDS011;62812;55.188;61.302;2022-08-19T06:16:50;8.65;;;2.80;;
74375;SDS011;62812;55.188;61.302;2022-08-19T06:19:20;7.07;;;2.83;;
74375;SDS011;62812;55.188;61.302;2022-08-19T06:21:49;6.95;;;2.67;;
74375;SDS011;62812;55.188;61.302;2022-08-19T06:24:17;6.28;;;2.70;;
74375;SDS011;62812;55.188;61.302;2022-08-19T06:26:48;5.35;;;2.63;;
74375;SDS011;62812;55.188;61.302;2022-08-19T06:29:15;6.20;;;2.70;;
74375;SDS011;62812;55.188;61.302;2022-08-19T06:31:44;8.15;;;3.10;;
74375;SDS011;62812;55.188;61.302;2022-08-19T06:34:12;5.65;;;2.92;;
74375;SDS011;62812;55.188;61.302;2022-08-19T06:36:40;11.40;;;3.40;;
74375;SDS011;62812;55.188;61.302;2022-08-19T06:39:10;9.60;;;4.00;;
74375;SDS011;62812;55.188;61.302;2022-08-19T06:41:40;8.48;;;4.45;;
74375;SDS011;62812;55.188;61.302;2022-08-19T06:44:10;9.15;;;3.95;;
74375;SDS011;62812;55.188;61.302;2022-08-19T06:46:37;13.77;;;5.22;;
74375;SDS011;62812;55.188;61.302;2022-08-19T06:49:05;8.05;;;4.78;;
74375;SDS011;62812;55.188;61.302;2022-08-19T06:51:35;10.85;;;5.80;;
74375;SDS011;62812;55.188;61.302;2022-08-19T06:54:04;10.80;;;5.65;;
74375;SDS011;62812;55.188;61.302;2022-08-19T06:56:33;10.27;;;4.18;;
74375;SDS011;62812;55.188;61.302;2022-08-19T06:59:00;8.80;;;4.50;;
74375;SDS011;62812;55.188;61.302;2022-08-19T07:01:30;11.38;;;4.28;;
74375;SDS011;62812;55.188;61.302;2022-08-19T07:04:00;7.47;;;3.78;;
74375;SDS011;62812;55.188;61.302;2022-08-19T07:06:28;9.68;;;4.05;;
74375;SDS011;62812;55.188;61.302;2022-08-19T07:08:57;7.90;;;4.10;;
74375;SDS011;62812;55.188;61.302;2022-08-19T07:11:24;9.27;;;4.50;;
74375;SDS011;62812;55.188;61.302;2022-08-19T07:13:50;12.63;;;4.45;;
74375;SDS011;62812;55.188;61.302;2022-08-19T07:16:18;10.90;;;5.20;;
74375;SDS011;62812;55.188;61.302;2022-08-19T07:18:47;8.05;;;4.50;;
74375;SDS011;62812;55.188;61.302;2022-08-19T07:21:15;10.48;;;4.72;;
74375;SDS011;62812;55.188;61.302;2022-08-19T07:23:43;10.48;;;4.50;;
74375;SDS011;62812;55.188;61.302;2022-08-19T07:26:13;9.43;;;4.97;;
74375;SDS011;62812;55.188;61.302;2022-08-19T07:28:41;7.32;;;4.68;;
74375;SDS011;62812;55.188;61.302;2022-08-19T07:31:10;9.05;;;4.80;;
74375;SDS011;62812;55.188;61.302;2022-08-19T07:33:36;8.80;;;5.05;;
74375;SDS011;62812;55.188;61.302;2022-08-19T07:36:05;9.48;;;5.60;;
74375;SDS011;62812;55.188;61.302;2022-08-19T07:38:33;10.07;;;4.65;;
74375;SDS011;62812;55.188;61.302;2022-08-19T07:41:00;9.85;;;5.20;;
74375;SDS011;62812;55.188;61.302;2022-08-19T07:43:28;13.65;;;5.50;;
74375;SDS011;62812;55.188;61.302;2022-08-19T07:45:54;10.25;;;5.30;;
74375;SDS011;62812;55.188;61.302;2022-08-19T07:48:25;8.43;;;5.18;;
74375;SDS011;62812;55.188;61.302;2022-08-19T07:50:53;8.80;;;5.30;;
74375;SDS011;62812;55.188;61.302;2022-08-19T07:53:21;8.48;;;4.53;;
74375;SDS011;62812;55.188;61.302;2022-08-19T07:55:50;9.23;;;5.05;;
74375;SDS011;62812;55.188;61.302;2022-08-19T07:58:18;10.27;;;5.18;;
74375;SDS011;62812;55.188;61.302;2022-08-19T08:00:47;10.20;;;5.75;;
74375;SDS011;62812;55.188;61.302;2022-08-19T08:03:16;9.00;;;4.78;;
74375;SDS011;62812;55.188;61.302;2022-08-19T08:05:45;11.05;;;5.07;;
74375;SDS011;62812;55.188;61.302;2022-08-19T08:08:31;8.65;;;4.68;;
74375;SDS011;62812;55.188;61.302;2022-08-19T08:11:18;9.40;;;4.35;;
74375;SDS011;62812;55.188;61.302;2022-08-19T08:13:45;10.85;;;5.65;;
74375;SDS011;62812;55.188;61.302;2022-08-19T08:16:14;9.27;;;4.43;;
74375;SDS011;62812;55.188;61.302;2022-08-19T08:18:40;8.98;;;4.65;;
74375;SDS011;62812;55.188;61.302;2022-08-19T08:21:08;7.07;;;4.15;;
74375;SDS011;62812;55.188;61.302;2022-08-19T08:23:36;8.05;;;4.78;;
74375;SDS011;62812;55.188;61.302;2022-08-19T08:26:02;10.05;;;4.88;;
74375;SDS011;62812;55.188;61.302;2022-08-19T08:28:30;7.90;;;4.80;;
74375;SDS011;62812;55.188;61.302;2022-08-19T08:30:57;11.98;;;5.00;;
74375;SDS011;62812;55.188;61.302;2022-08-19T08:33:24;8.75;;;4.60;;
74375;SDS011;62812;55.188;61.302;2022-08-19T08:35:52;8.52;;;4.13;;
74375;SDS011;62812;55.188;61.302;2022-08-19T08:38:19;11.38;;;5.05;;
74375;SDS011;62812;55.188;61.302;2022-08-19T08:40:48;9.18;;;4.57;;
74375;SDS011;62812;55.188;61.302;2022-08-19T08:43:21;8.63;;;4.50;;
74375;SDS011;62812;55.188;61.302;2022-08-19T08:45:53;9.85;;;5.28;;
74375;SDS011;62812;55.188;61.302;2022-08-19T08:48:31;10.05;;;4.97;;
74375;SDS011;62812;55.188;61.302;2022-08-19T08:51:03;8.75;;;4.95;;
74375;SDS011;62812;55.188;61.302;2022-08-19T08:53:33;11.43;;;4.85;;
74375;SDS011;62812;55.188;61.302;2022-08-19T08:56:06;7.47;;;4.53;;
74375;SDS011;62812;55.188;61.302;2022-08-19T08:58:36;7.28;;;4.13;;
74375;SDS011;62812;55.188;61.302;2022-08-19T09:01:10;10.23;;;5.13;;
74375;SDS011;62812;55.188;61.302;2022-08-19T09:03:37;8.75;;;4.38;;
74375;SDS011;62812;55.188;61.302;2022-08-19T09:06:07;10.80;;;5.43;;
74375;SDS011;62812;55.188;61.302;2022-08-19T09:08:45;10.43;;;5.40;;
74375;SDS011;62812;55.188;61.302;2022-08-19T09:11:18;10.23;;;5.03;;
74375;SDS011;62812;55.188;61.302;2022-08-19T09:13:54;11.75;;;5.25;;
74375;SDS011;62812;55.188;61.302;2022-08-19T09:16:27;10.32;;;5.32;;
74375;SDS011;62812;55.188;61.302;2022-08-19T09:18:56;10.85;;;4.65;;
74375;SDS011;62812;55.188;61.302;2022-08-19T09:21:26;7.35;;;3.92;;
74375;SDS011;62812;55.188;61.302;2022-08-19T09:23:53;6.63;;;4.20;;
74375;SDS011;62812;55.188;61.302;2022-08-19T09:26:22;7.43;;;4.70;;
74375;SDS011;62812;55.188;61.302;2022-08-19T09:28:50;8.38;;;4.57;;
74375;SDS011;62812;55.188;61.302;2022-08-19T09:31:25;9.40;;;4.68;;
74375;SDS011;62812;55.188;61.302;2022-08-19T09:33:53;10.20;;;4.75;;
74375;SDS011;62812;55.188;61.302;2022-08-19T09:36:23;7.03;;;4.05;;
74375;SDS011;62812;55.188;61.302;2022-08-19T09:38:52;8.32;;;3.80;;
74375;SDS011;62812;55.188;61.302;2022-08-19T09:41:21;7.45;;;4.18;;
74375;SDS011;62812;55.188;61.302;2022-08-19T09:43:50;7.53;;;4.00;;
74375;SDS011;62812;55.188;61.302;2022-08-19T09:46:18;6.22;;;3.50;;
74375;SDS011;62812;55.188;61.302;2022-08-19T09:48:47;8.15;;;3.70;;
74375;SDS011;62812;55.188;61.302;2022-08-19T09:51:18;9.02;;;4.03;;
74375;SDS011;62812;55.188;61.302;2022-08-19T09:53:47;9.50;;;4.20;;
74375;SDS011;62812;55.188;61.302;2022-08-19T09:56:16;6.57;;;3.55;;
74375;SDS011;62812;55.188;61.302;2022-08-19T09:58:48;7.25;;;3.47;;
74375;SDS011;62812;55.188;61.302;2022-08-19T10:01:16;9.35;;;3.58;;
74375;SDS011;62812;55.188;61.302;2022-08-19T10:03:46;6.82;;;3.70;;
74375;SDS011;62812;55.188;61.302;2022-08-19T10:06:13;7.03;;;3.67;;
74375;SDS011;62812;55.188;61.302;2022-08-19T10:08:40;8.63;;;3.65;;
74375;SDS011;62812;55.188;61.302;2022-08-19T10:11:07;6.47;;;3.63;;
74375;SDS011;62812;55.188;61.302;2022-08-19T10:13:35;7.68;;;3.53;;
74375;SDS011;62812;55.188;61.302;2022-08-19T10:16:04;10.57;;;3.75;;
74375;SDS011;62812;55.188;61.302;2022-08-19T10:18:33;6.18;;;3.60;;
74375;SDS011;62812;55.188;61.302;2022-08-19T10:21:06;6.43;;;3.38;;
74375;SDS011;62812;55.188;61.302;2022-08-19T10:23:34;6.32;;;3.15;;
74375;SDS011;62812;55.188;61.302;2022-08-19T10:26:04;8.15;;;3.50;;
74375;SDS011;62812;55.188;61.302;2022-08-19T10:28:32;11.05;;;3.70;;
74375;SDS011;62812;55.188;61.302;2022-08-19T10:31:04;8.30;;;3.40;;
74375;SDS011;62812;55.188;61.302;2022-08-19T10:33:32;5.57;;;3.00;;
74375;SDS011;62812;55.188;61.302;2022-08-19T10:35:59;6.05;;;3.30;;
74375;SDS011;62812;55.188;61.302;2022-08-19T10:38:26;6.00;;;2.95;;
74375;SDS011;62812;55.188;61.302;2022-08-19T10:40:54;6.20;;;3.25;;
74375;SDS011;62812;55.188;61.302;2022-08-19T10:43:21;26.42;;;4.18;;
74375;SDS011;62812;55.188;61.302;2022-08-19T10:45:48;9.00;;;3.58;;
74375;SDS011;62812;55.188;61.302;2022-08-19T10:48:20;5.90;;;3.05;;
74375;SDS011;62812;55.188;61.302;2022-08-19T10:50:47;6.72;;;2.95;;
74375;SDS011;62812;55.188;61.302;2022-08-19T10:53:32;6.35;;;3.25;;
74375;SDS011;62812;55.188;61.302;2022-08-19T10:55:58;5.53;;;2.60;;
74375;SDS011;62812;55.188;61.302;2022-08-19T10:58:43;8.23;;;2.97;;
74375;SDS011;62812;55.188;61.302;2022-08-19T11:01:10;6.32;;;3.15;;
74375;SDS011;62812;55.188;61.302;2022-08-19T11:03:38;6.88;;;3.08;;
74375;SDS011;62812;55.188;61.302;2022-08-19T11:06:10;7.68;;;3.25;;
74375;SDS011;62812;55.188;61.302;2022-08-19T11:08:36;6.20;;;2.90;;
74375;SDS011;62812;55.188;61.302;2022-08-19T11:11:03;6.60;;;2.83;;
74375;SDS011;62812;55.188;61.302;2022-08-19T11:13:32;7.53;;;2.83;;
74375;SDS011;62812;55.188;61.302;2022-08-19T11:16:04;5.47;;;2.83;;
74375;SDS011;62812;55.188;61.302;2022-08-19T11:18:33;5.43;;;2.53;;
74375;SDS011;62812;55.188;61.302;2022-08-19T11:21:06;7.22;;;3.22;;
74375;SDS011;62812;55.188;61.302;2022-08-19T11:23:34;7.60;;;2.83;;
74375;SDS011;62812;55.188;61.302;2022-08-19T11:26:01;6.82;;;2.75;;
74375;SDS011;62812;55.188;61.302;2022-08-19T11:28:27;11.02;;;3.00;;
74375;SDS011;62812;55.188;61.302;2022-08-19T11:30:54;7.78;;;3.22;;
74375;SDS011;62812;55.188;61.302;2022-08-19T11:33:20;9.27;;;3.33;;
74375;SDS011;62812;55.188;61.302;2022-08-19T11:35:47;6.80;;;3.17;;
74375;SDS011;62812;55.188;61.302;2022-08-19T11:38:16;10.30;;;3.22;;
74375;SDS011;62812;55.188;61.302;2022-08-19T11:40:44;6.45;;;2.63;;
74375;SDS011;62812;55.188;61.302;2022-08-19T11:43:10;5.75;;;3.15;;
74375;SDS011;62812;55.188;61.302;2022-08-19T11:45:37;7.43;;;3.13;;
74375;SDS011;62812;55.188;61.302;2022-08-19T11:48:03;7.00;;;3.25;;
74375;SDS011;62812;55.188;61.302;2022-08-19T11:50:30;6.72;;;2.90;;
74375;SDS011;62812;55.188;61.302;2022-08-19T11:52:56;7.03;;;2.75;;
74375;SDS011;62812;55.188;61.302;2022-08-19T11:55:25;6.07;;;2.47;;
74375;SDS011;62812;55.188;61.302;2022-08-19T11:57:52;7.03;;;3.00;;
74375;SDS011;62812;55.188;61.302;2022-08-19T12:00:18;7.03;;;3.13;;
74375;SDS011;62812;55.188;61.302;2022-08-19T12:02:47;8.15;;;3.03;;
74375;SDS011;62812;55.188;61.302;2022-08-19T12:05:14;5.50;;;2.65;;
74375;SDS011;62812;55.188;61.302;2022-08-19T12:07:40;7.70;;;3.00;;
74375;SDS011;62812;55.188;61.302;2022-08-19T12:10:08;5.20;;;2.78;;
74375;SDS011;62812;55.188;61.302;2022-08-19T12:12:36;7.60;;;2.78;;
74375;SDS011;62812;55.188;61.302;2022-08-19T12:15:08;8.00;;;3.08;;
74375;SDS011;62812;55.188;61.302;2022-08-19T12:17:36;5.55;;;2.95;;
74375;SDS011;62812;55.188;61.302;2022-08-19T12:20:03;6.65;;;2.75;;
74375;SDS011;62812;55.188;61.302;2022-08-19T12:22:32;7.35;;;3.38;;
74375;SDS011;62812;55.188;61.302;2022-08-19T12:24:59;5.90;;;2.90;;
74375;SDS011;62812;55.188;61.302;2022-08-19T12:27:26;7.97;;;3.00;;
74375;SDS011;62812;55.188;61.302;2022-08-19T12:29:56;8.70;;;2.75;;
74375;SDS011;62812;55.188;61.302;2022-08-19T12:32:23;9.55;;;3.25;;
74375;SDS011;62812;55.188;61.302;2022-08-19T12:34:52;6.78;;;3.15;;
74375;SDS011;62812;55.188;61.302;2022-08-19T12:37:18;6.57;;;2.60;;
74375;SDS011;62812;55.188;61.302;2022-08-19T12:39:45;7.63;;;2.85;;
74375;SDS011;62812;55.188;61.302;2022-08-19T12:42:12;7.85;;;3.20;;
74375;SDS011;62812;55.188;61.302;2022-08-19T12:44:40;8.15;;;3.25;;
74375;SDS011;62812;55.188;61.302;2022-08-19T12:47:10;10.75;;;3.10;;
74375;SDS011;62812;55.188;61.302;2022-08-19T12:49:40;9.13;;;3.70;;
74375;SDS011;62812;55.188;61.302;2022-08-19T12:52:07;6.53;;;3.30;;
74375;SDS011;62812;55.188;61.302;2022-08-19T12:54:34;12.32;;;4.00;;
74375;SDS011;62812;55.188;61.302;2022-08-19T12:57:04;7.30;;;3.47;;
74375;SDS011;62812;55.188;61.302;2022-08-19T12:59:31;6.03;;;3.03;;
74375;SDS011;62812;55.188;61.302;2022-08-19T13:01:58;6.32;;;3.15;;
74375;SDS011;62812;55.188;61.302;2022-08-19T13:04:27;7.93;;;3.22;;
74375;SDS011;62812;55.188;61.302;2022-08-19T13:06:54;7.82;;;3.45;;
74375;SDS011;62812;55.188;61.302;2022-08-19T13:09:20;7.95;;;3.60;;
74375;SDS011;62812;55.188;61.302;2022-08-19T13:11:49;15.90;;;7.05;;
74375;SDS011;62812;55.188;61.302;2022-08-19T13:14:15;8.35;;;3.42;;
74375;SDS011;62812;55.188;61.302;2022-08-19T13:16:42;6.47;;;3.50;;
74375;SDS011;62812;55.188;61.302;2022-08-19T13:19:08;7.25;;;3.60;;
74375;SDS011;62812;55.188;61.302;2022-08-19T13:21:37;8.93;;;3.53;;
74375;SDS011;62812;55.188;61.302;2022-08-19T13:24:04;6.78;;;3.45;;
74375;SDS011;62812;55.188;61.302;2022-08-19T13:26:30;9.18;;;3.95;;
74375;SDS011;62812;55.188;61.302;2022-08-19T13:28:58;8.50;;;4.00;;
74375;SDS011;62812;55.188;61.302;2022-08-19T13:31:43;9.10;;;3.20;;
74375;SDS011;62812;55.188;61.302;2022-08-19T13:34:28;8.85;;;4.30;;
74375;SDS011;62812;55.188;61.302;2022-08-19T13:36:58;8.38;;;3.58;;
74375;SDS011;62812;55.188;61.302;2022-08-19T13:39:25;11.82;;;4.28;;
74375;SDS011;62812;55.188;61.302;2022-08-19T13:41:52;9.52;;;3.80;;
74375;SDS011;62812;55.188;61.302;2022-08-19T13:44:19;10.07;;;4.15;;
74375;SDS011;62812;55.188;61.302;2022-08-19T13:46:47;10.30;;;3.67;;
74375;SDS011;62812;55.188;61.302;2022-08-19T13:49:16;6.75;;;3.35;;
74375;SDS011;62812;55.188;61.302;2022-08-19T13:51:44;9.73;;;4.10;;
74375;SDS011;62812;55.188;61.302;2022-08-19T13:54:12;8.90;;;4.00;;
74375;SDS011;62812;55.188;61.302;2022-08-19T13:56:42;7.97;;;3.97;;
74375;SDS011;62812;55.188;61.302;2022-08-19T13:59:10;12.45;;;4.35;;
74375;SDS011;62812;55.188;61.302;2022-08-19T14:01:37;10.57;;;3.97;;
74375;SDS011;62812;55.188;61.302;2022-08-19T14:04:04;10.90;;;4.03;;
74375;SDS011;62812;55.188;61.302;2022-08-19T14:06:33;8.02;;;3.85;;
74375;SDS011;62812;55.188;61.302;2022-08-19T14:09:00;9.10;;;3.70;;
74375;SDS011;62812;55.188;61.302;2022-08-19T14:11:29;13.77;;;4.78;;
74375;SDS011;62812;55.188;61.302;2022-08-19T14:13:56;9.15;;;3.67;;
74375;SDS011;62812;55.188;61.302;2022-08-19T14:16:22;11.50;;;4.47;;
74375;SDS011;62812;55.188;61.302;2022-08-19T14:18:50;10.57;;;3.67;;
74375;SDS011;62812;55.188;61.302;2022-08-19T14:21:17;11.93;;;4.60;;
74375;SDS011;62812;55.188;61.302;2022-08-19T14:23:48;7.05;;;3.97;;
74375;SDS011;62812;55.188;61.302;2022-08-19T14:26:14;9.45;;;4.00;;
74375;SDS011;62812;55.188;61.302;2022-08-19T14:28:44;10.43;;;4.18;;
74375;SDS011;62812;55.188;61.302;2022-08-19T14:31:11;11.50;;;4.85;;
74375;SDS011;62812;55.188;61.302;2022-08-19T14:33:42;9.38;;;4.25;;
74375;SDS011;62812;55.188;61.302;2022-08-19T14:36:08;10.40;;;4.47;;
74375;SDS011;62812;55.188;61.302;2022-08-19T14:38:35;14.23;;;4.40;;
74375;SDS011;62812;55.188;61.302;2022-08-19T14:41:06;8.27;;;4.00;;